Time;durP1;ratioP1;P1;durP2;ratioP2;P2;SDS_P1;SDS_P2;PMS_P1;PMS_P2;Temp;Humidity;BMP_temperature;BMP_pressure;BME280_temperature;BME280_humidity;BME280_pressure;Samples;Min_cycle;Max_cycle;Signal;HPM_P1;HPM_P2
2023/01/02 00:01:30;;;;;;;;;;;7.60;99.90;;;6.30;100.00;96006.88;10483177;28;3263;-73
2023/01/02 00:06:32;;;;;;;;;;;7.50;99.90;;;6.25;100.00;96012.13;10486159;28;2032;-73
2023/01/02 00:11:36;;;;;;;;;;;;;;;6.32;100.00;96023.47;10485376;28;3129;-73
2023/01/02 00:16:39;;;;;;;;;;;;;;;6.26;100.00;96013.75;10479716;28;3148;-73
2023/01/02 00:21:42;;;;;;;;;;;;;;;6.15;100.00;96006.59;10479488;28;3151;-73
2023/01/02 00:26:47;;;;;;;;;;;;;;;6.03;100.00;96003.97;10478074;28;3206;-71
2023/01/02 00:31:51;;;;;;;;;;;;;;;5.97;100.00;96013.75;10476962;28;3195;-73
2023/01/02 00:36:54;;;;;;;;;;;;;;;5.94;100.00;96006.22;10477850;28;3273;-72
2023/01/02 00:41:57;;;;;;;;;;;;;;;5.91;100.00;96006.69;10480280;28;3186;-72
2023/01/02 00:47:01;;;;;;;;;;;;;;;5.90;100.00;96010.38;10486495;28;3172;-73
2023/01/02 00:52:04;;;;;;;;;;;;;;;5.79;100.00;96003.25;10483911;28;3334;-74
2023/01/02 00:57:07;;;;;;;;;;;;;;;5.76;100.00;95998.38;10485262;28;3187;-72
2023/01/02 01:02:10;;;;;;;;;;;;;;;5.74;100.00;95992.47;10479056;28;3239;-73
2023/01/02 01:07:13;;;;;;;;;;;;;;;5.71;100.00;96011.63;10482386;28;3108;-77
2023/01/02 01:12:16;;;;;;;;;;;;;;;5.79;100.00;96013.09;10486250;28;3065;-71
2023/01/02 01:17:19;;;;;;;;;;;;;;;5.70;100.00;96015.34;10482220;28;3112;-74
2023/01/02 01:22:23;;;;;;;;;;;;;;;5.70;100.00;95999.31;10480454;28;3247;-76
2023/01/02 01:27:27;;;;;;;;;;;;;;;5.66;100.00;96008.84;10477258;28;3171;-73
2023/01/02 01:32:30;;;;;;;;;;;;;;;5.68;100.00;96006.78;10472711;28;3265;-72
2023/01/02 01:37:33;;;;;;;;;;;;;;;5.65;100.00;96008.03;10486599;28;3133;-72
2023/01/02 01:42:36;;;;;;;;;;;;;;;5.70;100.00;96018.81;10484162;28;3545;-72
2023/01/02 01:47:39;;;;;;;;;;;;;;;5.67;100.00;96011.28;10480228;28;3117;-72
2023/01/02 01:52:42;;;;;;;;;;;;;;;5.85;100.00;96007.66;10477779;28;3164;-72
2023/01/02 01:57:45;;;;;;;;;;;;;;;5.79;100.00;96008.59;10487944;28;3222;-73
2023/01/02 02:02:49;;;;;;;;;;;;;;;5.71;100.00;96008.94;10477122;28;3144;-72
2023/01/02 02:07:52;;;;;;;;;;;;;;;5.65;100.00;96013.38;10484980;28;3332;-73
2023/01/02 02:12:55;;;;;;;;;;;;;;;5.61;100.00;96009.56;10487799;28;3184;-73
2023/01/02 02:17:58;;;;;;;;;;;;;;;5.55;100.00;96004.38;10478983;28;3188;-73
2023/01/02 02:23:01;;;;;;;;;;;;;;;5.60;100.00;95999.16;10467153;28;3377;-72
2023/01/02 02:28:05;;;;;;;;;;;;;;;5.58;100.00;95995.88;10468920;28;3169;-72
2023/01/02 02:33:09;;;;;;;;;;;;;;;5.57;100.00;95994.28;10479336;28;3175;-72
2023/01/02 02:38:12;;;;;;;;;;;;;;;5.48;100.00;95993.03;10472356;28;3195;-72
2023/01/02 02:43:15;;;;;;;;;;;6.50;99.90;;;5.38;100.00;95989.09;10475652;28;3236;-71
2023/01/02 02:48:18;;;;;;;;;;;;;;;5.36;100.00;95980.53;10475560;28;3139;-72
2023/01/02 02:53:22;;;;;;;;;;;;;;;5.28;100.00;95975.56;10471128;28;3218;-71
2023/01/02 02:58:25;;;;;;;;;;;;;;;5.29;100.00;95981.72;10481099;28;3178;-71
2023/01/02 03:03:28;;;;;;;;;;;;;;;5.23;100.00;95972.81;10475388;28;3144;-72
2023/01/02 03:08:31;;;;;;;;;;;6.40;99.90;;;5.20;100.00;95972.44;10488335;28;3185;-72
2023/01/02 03:13:35;;;;;;;;;;;6.40;99.90;;;5.24;100.00;95969.09;10483119;28;3195;-73
2023/01/02 03:18:43;;;;;;;;;;;6.40;99.90;;;5.30;100.00;95970.81;10481172;28;3219;-73
2023/01/02 03:23:46;;;;;;;;;;;6.40;99.90;;;5.22;100.00;95965.84;10487098;28;3373;-73
2023/01/02 03:28:49;;;;;;;;;;;6.40;99.90;;;5.29;100.00;95949.72;10481674;28;3241;-73
2023/01/02 03:33:52;;;;;;;;;;;6.40;99.90;;;5.32;100.00;95936.72;10483079;28;3269;-72
2023/01/02 03:38:55;;;;;;;;;;;6.50;99.90;;;5.27;100.00;95925.97;10476687;28;3163;-72
2023/01/02 03:43:58;;;;;;;;;;;6.50;99.90;;;5.56;100.00;95918.00;10486540;28;3250;-73
2023/01/02 03:49:00;;;;;;;;;;;6.50;99.90;;;5.49;100.00;95922.66;10472830;28;3118;-72
2023/01/02 03:54:03;;;;;;;;;;;6.60;99.90;;;5.52;100.00;95922.97;10475490;28;3133;-73
2023/01/02 03:59:06;;;;;;;;;;;6.70;99.90;;;5.57;100.00;95919.59;10482279;28;3135;-73
2023/01/02 04:04:08;;;;;;;;;;;6.70;99.90;;;5.58;100.00;95922.03;10483932;28;3195;-72
2023/01/02 04:09:11;;;;;;;;;;;6.80;99.90;;;5.50;100.00;95924.28;10489480;28;3215;-72
2023/01/02 04:14:14;;;;;;;;;;;6.70;99.90;;;5.49;100.00;95923.47;10484900;28;3258;-71
2023/01/02 04:19:25;;;;;;;;;;;6.60;99.90;;;5.48;100.00;95927.19;10491495;28;3303;-70
2023/01/02 04:24:28;;;;;;;;;;;6.60;99.90;;;5.46;100.00;95917.78;10487914;28;3259;-73
2023/01/02 04:29:31;;;;;;;;;;;6.60;99.90;;;5.42;100.00;95917.47;10483887;28;3131;-73
2023/01/02 04:34:34;;;;;;;;;;;6.60;99.90;;;5.45;100.00;95916.97;10478543;28;3731;-72
2023/01/02 04:39:36;;;;;;;;;;;6.60;99.90;;;5.35;100.00;95916.81;10482206;28;3200;-71
2023/01/02 04:44:39;;;;;;;;;;;6.50;99.90;;;5.25;100.00;95927.25;10476186;28;3183;-73
2023/01/02 04:49:42;;;;;;;;;;;6.40;99.90;;;5.13;100.00;95932.59;10466763;28;3187;-75
2023/01/02 04:54:45;;;;;;;;;;;6.30;99.90;;;5.01;100.00;95945.94;10475269;28;3263;-70
2023/01/02 04:59:47;;;;;;;;;;;6.20;99.90;;;4.93;100.00;95946.31;10472539;28;3188;-71
2023/01/02 05:04:50;;;;;;;;;;;6.20;99.90;;;4.86;100.00;95948.28;10476920;28;3095;-71
2023/01/02 05:09:53;;;;;;;;;;;6.10;99.90;;;4.80;100.00;95946.56;10483670;28;3328;-77
2023/01/02 05:14:56;;;;;;;;;;;5.90;99.90;;;4.71;100.00;95953.25;10483946;28;3284;-73
2023/01/02 05:19:58;;;;;;;;;;;5.90;99.90;;;4.72;100.00;95963.69;10482485;28;3097;-71
2023/01/02 05:25:01;;;;;;;;;;;5.90;99.90;;;4.74;100.00;95953.63;10476069;28;3125;-72
2023/01/02 05:30:04;;;;;;;;;;;6.00;99.90;;;4.73;100.00;95946.69;10477591;28;3198;-73
2023/01/02 05:35:07;;;;;;;;;;;6.00;99.90;;;4.74;100.00;95942.97;10477513;28;3219;-73
2023/01/02 05:40:10;;;;;;;;;;;5.90;99.90;;;4.75;100.00;95949.91;10473746;28;3117;-71
2023/01/02 05:45:13;;;;;;;;;;;6.00;99.90;;;4.82;100.00;95961.25;10492815;28;3231;-71
2023/01/02 05:50:15;;;;;;;;;;;6.00;99.90;;;4.93;100.00;95948.16;10471727;28;3347;-71
2023/01/02 05:55:18;;;;;;;;;;;6.00;99.90;;;4.85;100.00;95960.78;10480366;28;3116;-72
2023/01/02 06:00:21;;;;;;;;;;;6.00;99.90;;;4.82;100.00;95965.75;10470623;28;3198;-71
2023/01/02 06:05:24;;;;;;;;;;;6.00;99.90;;;4.77;100.00;95973.63;10480700;28;3143;-73
2023/01/02 06:10:26;;;;;;;;;;;6.00;99.90;;;4.69;100.00;95979.31;10480518;28;3544;-73
2023/01/02 06:15:29;;;;;;;;;;;5.90;99.90;;;4.54;100.00;95977.94;10473858;28;3176;-73
2023/01/02 06:20:31;;;;;;;;;;;5.90;99.90;;;4.52;100.00;95981.88;10472946;28;3116;-74
2023/01/02 06:25:34;;;;;;;;;;;5.40;99.90;;;4.47;100.00;95976.41;10470225;28;3251;-74
2023/01/02 06:30:37;;;;;;;;;;;5.50;99.90;;;4.44;100.00;95976.88;10461857;28;3195;-72
2023/01/02 06:35:40;;;;;;;;;;;;;;;4.36;100.00;95959.38;10479715;28;3230;-74
2023/01/02 06:40:43;;;;;;;;;;;5.50;99.90;;;4.30;100.00;95974.41;10481548;28;3282;-73
2023/01/02 06:45:46;;;;;;;;;;;5.50;99.90;;;4.27;100.00;95974.88;10488137;28;3171;-71
2023/01/02 06:50:49;;;;;;;;;;;5.40;99.90;;;4.20;100.00;95973.34;10489813;28;3153;-71
2023/01/02 06:55:51;;;;;;;;;;;5.40;99.90;;;4.19;100.00;95977.06;10486962;28;3182;-72
2023/01/02 07:00:54;;;;;;;;;;;5.40;99.90;;;4.16;100.00;95978.34;10460717;28;3118;-72
2023/01/02 07:05:57;;;;;;;;;;;5.30;99.90;;;4.15;100.00;95976.72;10482100;28;3202;-71
2023/01/02 07:10:59;;;;;;;;;;;5.30;99.90;;;4.20;100.00;95976.84;10479829;28;3362;-71
2023/01/02 07:16:02;;;;;;;;;;;5.30;99.90;;;4.16;100.00;95973.00;10485745;28;3177;-71
2023/01/02 07:21:05;;;;;;;;;;;5.30;99.90;;;4.29;100.00;95969.34;10486216;28;3245;-72
2023/01/02 07:26:08;;;;;;;;;;;5.40;99.90;;;4.39;100.00;95963.44;10484083;28;3314;-79
2023/01/02 07:31:14;;;;;;;;;;;5.50;99.90;;;4.55;100.00;95984.06;10499520;28;3176;-76
2023/01/02 07:36:16;;;;;;;;;;;5.50;99.90;;;4.68;100.00;95991.00;10501967;28;3147;-82
2023/01/02 07:41:19;;;;;;;;;;;5.70;99.90;;;4.74;100.00;95996.22;10503875;28;3125;-85
2023/01/02 07:46:22;;;;;;;;;;;5.80;99.90;;;4.81;100.00;95998.78;10499679;28;1926;-84
2023/01/02 07:51:25;;;;;;;;;;;5.80;99.90;;;4.88;100.00;95999.47;10501249;28;3179;-81
2023/01/02 07:56:29;;;;;;;;;;;5.90;99.90;;;5.01;100.00;96004.56;10512064;28;2485;-82
2023/01/02 08:01:32;;;;;;;;;;;6.00;99.90;;;5.12;100.00;95992.28;10502177;28;3033;-79
2023/01/02 08:06:36;;;;;;;;;;;6.10;99.90;;;5.29;100.00;95989.72;10511587;28;3367;-80
2023/01/02 08:11:39;;;;;;;;;;;6.20;99.90;;;5.50;100.00;95990.94;10522087;28;3231;-82
2023/01/02 08:16:41;;;;;;;;;;;6.40;99.90;;;5.68;100.00;96002.25;10507386;28;3259;-79
2023/01/02 08:21:44;;;;;;;;;;;6.50;99.90;;;5.85;100.00;96018.31;10495782;28;3286;-80
2023/01/02 08:26:47;;;;;;;;;;;6.70;99.90;;;6.06;100.00;96008.06;10499214;28;3171;-79
2023/01/02 08:31:50;;;;;;;;;;;6.90;99.90;;;6.12;100.00;96007.91;10501832;28;2177;-76
2023/01/02 08:36:54;;;;;;;;;;;7.00;99.90;;;6.29;100.00;96007.91;10494964;28;3120;-82
2023/01/02 08:41:58;;;;;;;;;;;7.10;99.90;;;6.42;100.00;96012.13;10489809;28;3239;-76
2023/01/02 08:47:00;;;;;;;;;;;7.20;99.90;;;6.59;100.00;96012.16;10486025;28;3176;-75
2023/01/02 08:52:03;;;;;;;;;;;7.40;99.90;;;6.88;100.00;96023.59;10495385;28;3196;-77
2023/01/02 08:57:06;;;;;;;;;;;7.60;99.90;;;7.07;100.00;96029.47;10494264;28;3270;-80
2023/01/02 09:02:09;;;;;;;;;;;7.80;99.90;;;7.21;100.00;96026.22;10487993;28;3215;-75
2023/01/02 09:07:13;;;;;;;;;;;8.00;99.90;;;7.30;100.00;96026.59;10489492;28;3231;-78
2023/01/02 09:12:16;;;;;;;;;;;8.10;99.90;;;7.38;100.00;96022.69;10489400;28;3147;-75
2023/01/02 09:17:19;;;;;;;;;;;8.60;99.90;;;7.49;100.00;96024.44;10489255;28;3160;-80
2023/01/02 09:22:21;;;;;;;;;;;8.30;99.90;;;7.60;100.00;96031.53;10484115;28;3292;-79
2023/01/02 09:27:24;;;;;;;;;;;8.40;99.90;;;7.82;100.00;96032.38;10484421;28;3215;-79
2023/01/02 09:32:27;;;;;;;;;;;8.50;99.90;;;8.03;100.00;96024.56;10485691;28;3088;-77
2023/01/02 09:37:30;;;;;;;;;;;8.70;99.90;;;8.11;100.00;96027.59;10490758;28;3198;-77
2023/01/02 09:42:33;;;;;;;;;;;8.90;99.90;;;8.31;100.00;96023.50;10491850;28;3206;-75
2023/01/02 09:47:35;;;;;;;;;;;9.20;99.90;;;8.62;100.00;96020.09;10495443;28;3328;-76
2023/01/02 09:52:38;;;;;;;;;;;9.20;99.90;;;8.84;100.00;96020.00;10495407;28;3370;-80
2023/01/02 09:57:41;;;;;;;;;;;9.50;99.90;;;9.13;100.00;96028.53;10490418;28;3187;-80
2023/01/02 10:02:44;;;;;;;;;;;9.70;99.90;;;9.64;100.00;96023.44;10497447;28;3155;-78
2023/01/02 10:07:47;;;;;;;;;;;10.10;99.90;;;10.23;100.00;96022.34;10507335;28;3170;-77
2023/01/02 10:12:51;;;;;;;;;;;;;;;10.80;100.00;96016.78;10521093;28;3175;-74
2023/01/02 10:17:53;;;;;;;;;;;11.10;99.90;;;11.29;100.00;96018.09;10535253;28;3096;-78
2023/01/02 10:22:56;;;;;;;;;;;11.50;99.90;;;11.54;100.00;95998.41;10530056;28;3120;-77
2023/01/02 10:28:00;;;;;;;;;;;11.90;99.90;;;11.58;100.00;95989.50;10527125;28;3187;-77
2023/01/02 10:33:03;;;;;;;;;;;12.10;99.90;;;11.83;95.43;95994.03;10494474;28;2253;-79
2023/01/02 10:38:08;;;;;;;;;;;12.30;99.90;;;11.96;91.09;95967.53;10475603;28;3187;-78
2023/01/02 10:43:10;;;;;;;;;;;12.50;99.90;;;12.00;89.13;95965.91;10497347;28;3156;-77
2023/01/02 10:48:13;;;;;;;;;;;12.60;99.90;;;11.90;88.15;95959.50;10494105;28;3313;-79
2023/01/02 10:53:18;;;;;;;;;;;12.70;99.90;;;12.24;86.36;95942.59;10493445;28;1862;-78
2023/01/02 10:58:21;;;;;;;;;;;12.70;99.90;;;12.41;84.88;95958.41;10488628;28;3228;-77
2023/01/02 11:03:25;;;;;;;;;;;13.00;99.90;;;12.65;85.44;95969.25;10494546;28;1917;-78
2023/01/02 11:08:27;;;;;;;;;;;13.30;99.90;;;13.01;80.09;95964.38;10501114;28;1901;-77
2023/01/02 11:13:30;;;;;;;;;;;13.50;99.90;;;13.31;78.04;95963.31;10494591;28;3184;-78
2023/01/02 11:18:33;;;;;;;;;;;13.80;99.90;;;13.44;76.53;95976.13;10501450;28;3493;-82
2023/01/02 11:23:35;;;;;;;;;;;14.00;99.90;;;13.55;74.85;95965.19;10499750;28;3139;-77
2023/01/02 11:28:38;;;;;;;;;;;14.20;99.90;;;13.56;73.48;95967.63;10490824;28;3175;-77
2023/01/02 11:33:41;;;;;;;;;;;14.30;99.90;;;13.69;71.84;95960.75;10494721;28;3179;-77
2023/01/02 11:38:43;;;;;;;;;;;14.30;99.90;;;13.79;71.75;95966.00;10488722;28;3345;-77
2023/01/02 11:43:51;;;;;;;;;;;14.40;99.90;;;13.82;72.21;95960.03;10493106;28;3255;-78
2023/01/02 11:48:54;;;;;;;;;;;14.50;99.90;;;13.91;69.29;95963.69;10495707;28;3326;-79
2023/01/02 11:53:56;;;;;;;;;;;14.60;99.90;;;13.87;69.94;95964.53;10489241;28;3464;-77
2023/01/02 11:58:59;;;;;;;;;;;14.30;99.90;;;13.92;69.98;95957.19;10495137;28;3319;-77
2023/01/02 12:04:02;;;;;;;;;;;14.50;99.90;;;14.10;68.75;95966.41;10490209;28;3350;-78
2023/01/02 12:09:05;;;;;;;;;;;14.80;99.90;;;14.20;68.33;95968.19;10497813;28;1900;-78
2023/01/02 12:14:08;;;;;;;;;;;14.80;99.90;;;14.26;66.76;95961.63;10495702;28;3315;-80
2023/01/02 12:19:11;;;;;;;;;;;14.90;99.90;;;14.44;64.10;95955.41;10501402;28;3315;-80
2023/01/02 12:24:14;;;;;;;;;;;15.00;99.90;;;14.46;63.40;95964.06;10493094;28;3350;-79
2023/01/02 12:29:18;;;;;;;;;;;15.10;99.90;;;14.46;63.55;95963.22;10494061;28;3346;-79
2023/01/02 12:34:42;;;;;;;;;;;15.20;99.90;;;14.46;62.50;95968.63;10489661;28;3438;-78
2023/01/02 12:39:48;;;;;;;;;;;15.20;99.90;;;14.36;63.55;95966.88;10489932;28;3335;-78
2023/01/02 12:44:51;;;;;;;;;;;15.20;99.90;;;14.18;64.97;95962.25;10479894;28;3428;-77
2023/01/02 12:49:54;;;;;;;;;;;15.10;99.90;;;14.28;64.32;95972.94;10495313;28;3339;-79
2023/01/02 12:54:57;;;;;;;;;;;15.00;99.90;;;14.36;61.92;95966.06;10489809;28;3311;-79
2023/01/02 13:00:01;;;;;;;;;;;15.10;99.90;;;14.30;63.82;95970.72;10493923;28;3342;-79
2023/01/02 13:05:04;;;;;;;;;;;15.00;99.90;;;14.18;64.55;95981.19;10508462;28;3591;-80
2023/01/02 13:10:12;;;;;;;;;;;15.10;99.90;;;14.10;64.93;95987.25;10511298;28;3375;-78
2023/01/02 13:15:15;;;;;;;;;;;15.00;99.90;;;14.09;66.32;95986.44;10490685;28;3464;-79
2023/01/02 13:20:19;;;;;;;;;;;15.00;99.90;;;14.16;66.48;95996.91;10489699;28;3394;-77
2023/01/02 13:25:22;;;;;;;;;;;15.00;99.90;;;14.14;66.51;96005.31;10498382;28;3200;-78
2023/01/02 13:30:24;;;;;;;;;;;15.00;99.90;;;14.20;67.10;96008.75;10497629;28;3271;-81
2023/01/02 13:35:27;;;;;;;;;;;15.00;99.90;;;14.15;68.52;96014.22;10497552;28;2090;-81
2023/01/02 13:40:31;;;;;;;;;;;15.00;99.90;;;14.15;68.65;96022.31;10494403;28;1980;-79
2023/01/02 13:45:36;;;;;;;;;;;15.00;99.90;;;14.05;68.56;96023.25;10488273;28;3322;-78
2023/01/02 13:50:39;;;;;;;;;;;15.00;99.90;;;13.82;71.35;96041.09;10484648;28;3314;-78
2023/01/02 13:55:42;;;;;;;;;;;14.90;99.90;;;13.75;72.76;96036.03;10488745;28;3368;-78
2023/01/02 14:00:45;;;;;;;;;;;14.70;99.90;;;13.62;74.55;96052.13;10490920;28;3339;-78
2023/01/02 14:05:56;;;;;;;;;;;14.60;99.90;;;13.59;76.62;96044.56;10490970;28;3323;-78
2023/01/02 14:10:59;;;;;;;;;;;14.60;99.90;;;13.49;78.21;96059.81;10485628;28;3319;-78
2023/01/02 14:16:02;;;;;;;;;;;14.50;99.90;;;13.41;79.67;96062.28;10484291;28;3383;-79
2023/01/02 14:21:05;;;;;;;;;;;14.50;99.90;;;13.18;82.58;96075.44;10485849;28;3326;-78
2023/01/02 14:26:07;;;;;;;;;;;14.30;99.90;;;13.01;85.36;96072.31;10490325;28;3376;-81
2023/01/02 14:31:11;;;;;;;;;;;14.10;99.90;;;12.91;87.54;96066.97;10488743;28;3291;-78
2023/01/02 14:36:14;;;;;;;;;;;14.00;99.90;;;12.74;89.80;96075.47;10494479;28;3229;-78
2023/01/02 14:46:37;;;;;;;;;;;13.70;99.90;;;12.45;94.10;96089.66;10487424;28;3306;-79
2023/01/02 14:51:40;;;;;;;;;;;13.60;99.90;;;12.36;95.14;96101.31;10482584;28;3375;-78
2023/01/02 14:56:43;;;;;;;;;;;13.50;99.90;;;12.18;97.30;96108.91;10498987;28;3330;-78
2023/01/02 15:01:52;;;;;;;;;;;13.30;99.90;;;12.02;98.95;96111.94;10492123;28;3409;-77
2023/01/02 15:06:55;;;;;;;;;;;13.20;99.90;;;11.86;100.00;96103.91;10494989;28;3466;-77
2023/01/02 15:17:20;;;;;;;;;;;12.90;99.90;;;11.67;100.00;96124.38;10497044;28;3392;-78
2023/01/02 15:22:22;;;;;;;;;;;12.80;99.90;;;11.43;100.00;96136.78;10491479;28;3697;-81
2023/01/02 15:27:25;;;;;;;;;;;12.70;99.90;;;11.31;100.00;96139.72;10491620;28;3328;-79
2023/01/02 15:32:28;;;;;;;;;;;12.50;99.90;;;11.28;100.00;96146.47;10495973;28;3255;-78
2023/01/02 15:37:30;;;;;;;;;;;12.50;99.90;;;11.21;100.00;96156.69;10494811;28;3283;-80
2023/01/02 15:47:55;;;;;;;;;;;12.30;99.90;;;11.12;100.00;96174.44;10498478;28;3264;-79
2023/01/02 15:52:57;;;;;;;;;;;12.30;99.90;;;11.16;100.00;96170.13;10494227;28;3299;-79
2023/01/02 15:58:04;;;;;;;;;;;12.30;99.90;;;11.01;100.00;96180.88;10500322;28;3240;-81
2023/01/02 16:03:07;;;;;;;;;;;12.20;99.90;;;10.94;100.00;96185.69;10490629;28;1928;-79
2023/01/02 16:08:10;;;;;;;;;;;12.10;99.90;;;10.87;100.00;96185.94;10497989;28;3248;-80
2023/01/02 16:18:31;;;;;;;;;;;11.90;99.90;;;10.81;100.00;96198.59;10501132;28;3680;-79
2023/01/02 16:23:34;;;;;;;;;;;11.90;99.90;;;10.82;100.00;96205.59;10495594;28;3352;-78
2023/01/02 16:28:37;;;;;;;;;;;11.90;99.90;;;10.80;100.00;96204.22;10493602;28;2063;-79
2023/01/02 16:33:41;;;;;;;;;;;11.90;99.90;;;10.75;100.00;96212.25;10494105;28;1983;-79
2023/01/02 16:38:45;;;;;;;;;;;11.90;99.90;;;10.73;100.00;96209.84;10504778;28;3326;-79
2023/01/02 16:43:48;;;;;;;;;;;11.80;99.90;;;10.65;100.00;96218.41;10513470;28;3078;-82
2023/01/02 16:48:51;;;;;;;;;;;11.80;99.90;;;10.53;100.00;96228.59;10543356;28;3101;-81
2023/01/02 16:53:55;;;;;;;;;;;11.70;99.90;;;10.57;100.00;96243.13;10539226;28;3231;-79
2023/01/02 16:58:58;;;;;;;;;;;11.70;99.90;;;10.48;100.00;96242.00;10532685;28;3855;-80
2023/01/02 17:04:00;;;;;;;;;;;11.70;99.90;;;10.50;100.00;96258.69;10526504;28;3310;-80
2023/01/02 17:09:03;;;;;;;;;;;11.60;99.90;;;10.39;100.00;96257.00;10488124;28;3276;-81
2023/01/02 17:14:05;;;;;;;;;;;11.50;99.90;;;10.21;100.00;96266.25;10491558;28;3228;-78
2023/01/02 17:19:08;;;;;;;;;;;11.40;99.90;;;10.12;100.00;96268.63;10488848;28;3240;-76
2023/01/02 17:24:11;;;;;;;;;;;11.30;99.90;;;10.12;100.00;96281.25;10481261;28;3335;-78
2023/01/02 17:29:14;;;;;;;;;;;11.20;99.90;;;10.03;100.00;96288.97;10485432;28;3382;-76
2023/01/02 17:34:17;;;;;;;;;;;11.10;99.90;;;9.82;100.00;96295.25;10488634;28;3263;-77
2023/01/02 17:39:20;;;;;;;;;;;11.10;99.90;;;10.00;100.00;96297.56;10481335;28;3477;-76
2023/01/02 17:44:23;;;;;;;;;;;11.10;99.90;;;9.94;100.00;96301.25;10486736;28;3283;-76
2023/01/02 17:49:25;;;;;;;;;;;11.10;99.90;;;9.81;100.00;96312.44;10482311;28;3213;-76
2023/01/02 17:54:28;;;;;;;;;;;11.00;99.90;;;9.80;100.00;96313.47;10487110;28;3346;-76
2023/01/02 17:59:31;;;;;;;;;;;10.90;99.90;;;9.98;100.00;96315.78;10478096;28;1975;-76
2023/01/02 18:04:33;;;;;;;;;;;11.00;99.90;;;10.06;100.00;96320.69;10487523;28;3331;-78
2023/01/02 18:09:36;;;;;;;;;;;11.10;99.90;;;10.16;100.00;96333.38;10463234;28;3346;-77
2023/01/02 18:14:39;;;;;;;;;;;11.20;99.90;;;10.16;100.00;96339.56;10471454;28;3280;-77
2023/01/02 18:19:41;;;;;;;;;;;11.20;99.90;;;10.22;100.00;96343.91;10481186;28;3359;-77
2023/01/02 18:24:44;;;;;;;;;;;11.20;99.90;;;10.19;100.00;96343.63;10476441;28;3355;-78
2023/01/02 18:29:47;;;;;;;;;;;11.30;99.90;;;10.06;100.00;96349.44;10479305;28;3271;-78
2023/01/02 18:34:50;;;;;;;;;;;11.20;99.90;;;10.08;100.00;96347.31;10482429;28;3409;-78
2023/01/02 18:40:01;;;;;;;;;;;11.10;99.90;;;9.95;100.00;96349.34;10492365;28;3278;-77
2023/01/02 18:45:03;;;;;;;;;;;11.10;99.90;;;9.93;100.00;96358.72;10479937;28;3362;-78
2023/01/02 18:50:06;;;;;;;;;;;11.00;99.90;;;9.87;100.00;96367.81;10492402;28;3434;-76
2023/01/02 18:55:09;;;;;;;;;;;11.00;99.90;;;9.85;100.00;96368.03;10486533;28;3276;-78
2023/01/02 19:00:11;;;;;;;;;;;11.00;99.90;;;9.93;100.00;96367.59;10492865;28;3326;-77
2023/01/02 19:05:14;;;;;;;;;;;10.90;99.90;;;10.00;100.00;96367.38;10484713;28;3334;-77
2023/01/02 19:10:17;;;;;;;;;;;11.00;99.90;;;9.94;100.00;96368.41;10489716;28;3312;-78
2023/01/02 19:15:20;;;;;;;;;;;11.10;99.90;;;9.79;100.00;96371.72;10485486;28;3331;-78
2023/01/02 19:20:22;;;;;;;;;;;11.00;99.90;;;9.82;100.00;96375.81;10491079;28;3344;-77
2023/01/02 19:25:25;;;;;;;;;;;10.90;99.90;;;9.80;100.00;96377.91;10486986;28;3438;-77
2023/01/02 19:30:28;;;;;;;;;;;10.90;99.90;;;9.73;100.00;96375.44;10484099;28;3284;-77
2023/01/02 19:35:31;;;;;;;;;;;10.90;99.90;;;9.72;100.00;96380.00;10482311;28;3335;-77
2023/01/02 19:40:33;;;;;;;;;;;10.80;99.90;;;9.70;100.00;96374.06;10492326;28;3302;-77
2023/01/02 19:45:36;;;;;;;;;;;10.80;99.90;;;9.62;100.00;96387.94;10485657;28;3339;-77
2023/01/02 19:50:39;;;;;;;;;;;10.80;99.90;;;9.52;100.00;96378.97;10488705;28;3248;-78
2023/01/02 19:55:42;;;;;;;;;;;10.70;99.90;;;9.41;100.00;96386.09;10479905;28;3312;-76
2023/01/02 20:00:44;;;;;;;;;;;10.60;99.90;;;9.46;100.00;96395.00;10491088;28;3351;-77
2023/01/02 20:05:47;;;;;;;;;;;10.50;99.90;;;9.52;100.00;96397.75;10490051;28;3688;-77
2023/01/02 20:10:49;;;;;;;;;;;10.50;99.90;;;9.64;100.00;96396.56;10488117;28;3380;-75
2023/01/02 20:15:52;;;;;;;;;;;10.60;99.90;;;9.98;100.00;96401.72;10480606;28;3532;-76
2023/01/02 20:20:55;;;;;;;;;;;10.80;99.90;;;10.00;100.00;96411.16;10485010;28;3470;-76
2023/01/02 20:25:57;;;;;;;;;;;11.00;99.90;;;10.05;100.00;96399.63;10479335;28;4406;-76
2023/01/02 20:31:00;;;;;;;;;;;11.10;99.90;;;9.99;100.00;96403.38;10488127;28;3402;-77
2023/01/02 20:36:03;;;;;;;;;;;11.10;99.90;;;9.87;100.00;96410.75;10504792;28;3368;-77
2023/01/02 20:41:14;;;;;;;;;;;11.00;99.90;;;9.74;100.00;96418.16;10477957;28;3362;-77
2023/01/02 20:46:17;;;;;;;;;;;10.90;99.90;;;9.70;100.00;96430.44;10480644;28;3409;-77
2023/01/02 20:51:20;;;;;;;;;;;10.80;99.90;;;9.61;100.00;96433.84;10482580;28;3275;-76
2023/01/02 20:56:23;;;;;;;;;;;10.80;99.90;;;9.56;100.00;96431.09;10481259;28;3391;-76
2023/01/02 21:01:26;;;;;;;;;;;10.70;99.90;;;9.52;100.00;96436.13;10484335;28;3311;-77
2023/01/02 21:06:29;;;;;;;;;;;10.70;99.90;;;9.45;100.00;96438.22;10478934;28;3315;-77
2023/01/02 21:11:32;;;;;;;;;;;10.60;99.90;;;9.40;100.00;96443.50;10481654;28;3276;-77
2023/01/02 21:16:34;;;;;;;;;;;10.50;99.90;;;9.41;100.00;96463.91;10484755;28;3457;-79
2023/01/02 21:21:37;;;;;;;;;;;10.50;99.90;;;9.53;100.00;96466.47;10482173;28;3355;-76
2023/01/02 21:26:39;;;;;;;;;;;10.60;99.90;;;9.69;100.00;96463.72;10486903;28;3394;-75
2023/01/02 21:31:42;;;;;;;;;;;10.60;99.90;;;9.73;100.00;96470.22;10478037;28;3323;-76
2023/01/02 21:36:45;;;;;;;;;;;10.30;99.90;;;9.71;100.00;96472.34;10479878;28;3270;-76
2023/01/02 21:47:10;;;;;;;;;;;10.70;99.90;;;9.49;100.00;96482.28;10477071;28;3374;-77
2023/01/02 21:52:12;;;;;;;;;;;10.60;99.90;;;9.46;100.00;96486.25;10488410;28;3326;-76
2023/01/02 21:57:15;;;;;;;;;;;10.60;99.90;;;9.49;100.00;96490.34;10485300;28;3373;-77
2023/01/02 22:02:19;;;;;;;;;;;10.60;99.90;;;9.46;100.00;96505.03;10477709;28;3268;-75
2023/01/02 22:07:33;;;;;;;;;;;10.60;99.90;;;9.51;100.00;96498.94;10482126;28;3311;-78
2023/01/02 22:12:42;;;;;;;;;;;10.50;99.90;;;9.60;100.00;96504.66;10486879;28;3292;-78
2023/01/02 22:17:44;;;;;;;;;;;10.60;99.90;;;9.60;100.00;96497.44;10488474;28;3279;-76
2023/01/02 22:22:48;;;;;;;;;;;10.60;99.90;;;9.63;100.00;96507.69;10492176;28;3307;-76
2023/01/02 22:27:51;;;;;;;;;;;10.70;99.90;;;9.59;100.00;96517.28;10487792;28;3264;-77
2023/01/02 22:32:54;;;;;;;;;;;10.70;99.90;;;9.58;100.00;96520.22;10489979;28;3279;-75
2023/01/02 22:37:58;;;;;;;;;;;10.60;99.90;;;9.57;100.00;96532.84;10491223;28;3323;-75
2023/01/02 22:43:00;;;;;;;;;;;10.60;99.90;;;9.52;100.00;96535.44;10492030;28;3261;-74
2023/01/02 22:48:07;;;;;;;;;;;10.60;99.90;;;9.55;100.00;96545.69;10494653;28;3283;-76
2023/01/02 22:53:09;;;;;;;;;;;10.60;99.90;;;9.54;100.00;96545.91;10492210;28;3342;-76
2023/01/02 22:58:12;;;;;;;;;;;10.60;99.90;;;9.62;100.00;96556.25;10485486;28;3672;-75
2023/01/02 23:03:15;;;;;;;;;;;10.70;99.90;;;9.63;100.00;96560.56;10472897;28;3244;-76
2023/01/02 23:08:20;;;;;;;;;;;10.70;99.90;;;9.65;100.00;96553.06;10498835;28;3334;-74
2023/01/02 23:13:22;;;;;;;;;;;10.70;99.90;;;9.61;100.00;96558.13;10494904;28;3428;-73
2023/01/02 23:23:45;;;;;;;;;;;10.70;99.90;;;9.62;100.00;96570.50;10474828;28;3268;-76
2023/01/02 23:28:48;;;;;;;;;;;10.70;99.90;;;9.55;100.00;96571.72;10499134;28;3338;-76
2023/01/02 23:34:08;;;;;;;;;;;10.60;99.90;;;9.60;100.00;96572.59;10482664;28;3327;-77
2023/01/02 23:39:11;;;;;;;;;;;10.60;99.90;;;9.65;100.00;96580.72;10487166;28;3335;-76
2023/01/02 23:44:14;;;;;;;;;;;10.60;99.90;;;9.74;100.00;96575.75;10490599;28;3307;-76
2023/01/02 23:49:16;;;;;;;;;;;10.70;99.90;;;9.86;100.00;96580.97;10487447;28;3402;-75
2023/01/02 23:54:19;;;;;;;;;;;10.80;99.90;;;9.84;100.00;96583.09;10492431;28;3340;-75
2023/01/02 23:59:22;;;;;;;;;;;10.80;99.90;;;9.80;100.00;96587.34;10490844;28;3402;-76
